Time;durP1;ratioP1;P1;durP2;ratioP2;P2;SDS_P1;SDS_P2;PMS_P1;PMS_P2;Temp;Humidity;BMP_temperature;BMP_pressure;BME280_temperature;BME280_humidity;BME280_pressure;Samples;Min_cycle;Max_cycle;Signal;HPM_P1;HPM_P2
2020/12/04 00:02:09;;;;;;;52.27;25.60;;;;;;;-0.06;80.37;101205.92;1667283;84;21211;-88
2020/12/04 00:04:36;;;;;;;61.50;28.33;;;;;;;-0.05;80.32;101200.20;1674348;84;21207;-87
2020/12/04 00:07:03;;;;;;;78.20;34.53;;;;;;;-0.15;80.59;101205.20;1623910;83;21166;-86
2020/12/04 00:09:32;;;;;;;52.90;25.50;;;;;;;-0.17;80.78;101203.59;1627232;86;21368;-85
2020/12/04 00:11:59;;;;;;;61.93;28.63;;;;;;;-0.06;80.59;101206.37;1624437;86;21820;-87
2020/12/04 00:14:26;;;;;;;68.10;34.20;;;;;;;-0.02;80.37;101221.81;1614553;86;21243;-87
2020/12/04 00:16:54;;;;;;;61.33;29.60;;;;;;;-0.11;80.71;101209.77;1633561;85;21607;-84
2020/12/04 00:19:21;;;;;;;53.03;23.33;;;;;;;-0.24;81.12;101211.85;1631593;86;21170;-87
2020/12/04 00:21:51;;;;;;;55.27;25.37;;;;;;;-0.13;81.01;101204.62;1617880;87;21132;-85
2020/12/04 00:24:18;;;;;;;63.93;31.23;;;;;;;-0.09;80.93;101203.97;1624665;85;21148;-85
2020/12/04 00:26:46;;;;;;;58.77;26.10;;;;;;;-0.11;80.97;101187.50;1616482;86;21234;-83
2020/12/04 00:29:13;;;;;;;;;;;;;;;-0.18;81.31;101191.45;1627844;86;21332;-82
2020/12/04 00:31:39;;;;;;;48.70;24.70;;;;;;;-0.21;81.45;101197.25;1637759;86;20158;-84
2020/12/04 00:34:07;;;;;;;55.00;27.43;;;;;;;-0.08;81.22;101184.66;1619934;86;21260;-87
2020/12/04 00:36:35;;;;;;;61.10;27.60;;;;;;;-0.01;81.02;101197.75;1625576;84;21674;-85
2020/12/04 00:39:02;;;;;;;47.50;24.33;;;;;;;-0.02;81.05;101186.88;1630512;86;21194;-85
2020/12/04 00:41:28;;;;;;;;;;;;;;;-0.05;81.12;101189.23;1635975;86;21242;-86
2020/12/04 00:43:55;;;;;;;63.93;29.30;;;;;;;-0.05;81.17;101183.16;1630438;86;20213;-85
2020/12/04 00:46:23;;;;;;;73.60;29.73;;;;;;;0.07;80.87;101183.66;1618938;86;21923;-87
2020/12/04 00:48:50;;;;;;;60.97;27.67;;;;;;;-0.02;80.97;101188.19;1622755;86;21384;-84
2020/12/04 00:51:19;;;;;;;62.93;29.07;;;;;;;-0.11;81.24;101177.02;1612378;86;21267;-86
2020/12/04 00:53:50;;;;;;;53.17;27.00;;;;;;;-0.12;81.39;101181.39;1638550;86;21180;-84
2020/12/04 00:56:18;;;;;;;67.47;30.80;;;;;;;-0.05;81.20;101196.27;1625851;86;21222;-83
2020/12/04 00:58:46;;;;;;;63.67;29.00;;;;;;;-0.04;81.12;101186.14;1630261;86;21210;-83
2020/12/04 01:01:13;;;;;;;60.60;29.03;;;;;;;-0.21;81.66;101180.67;1633787;86;21171;-84
2020/12/04 01:03:40;;;;;;;71.10;30.67;;;;;;;-0.29;82.20;101176.40;1630277;85;21234;-84
2020/12/04 01:06:07;;;;;;;62.97;29.13;;;;;;;-0.15;81.71;101172.44;1636235;83;21226;-85
2020/12/04 01:08:34;;;;;;;60.47;31.90;;;;;;;-0.08;81.64;101172.39;1638862;86;21224;-83
2020/12/04 01:11:02;;;;;;;56.83;26.27;;;;;;;-0.14;81.83;101173.27;1634330;86;21376;-84
2020/12/04 01:13:30;;;;;;;47.03;21.13;;;;;;;-0.16;81.89;101162.88;1633809;85;21224;-87
2020/12/04 01:15:59;;;;;;;47.57;23.63;;;;;;;-0.12;81.83;101182.70;1630938;86;21239;-89
2020/12/04 01:18:27;;;;;;;51.17;26.23;;;;;;;-0.04;81.56;101183.08;1627146;86;21202;-88
2020/12/04 01:20:54;;;;;;;55.70;29.93;;;;;;;-0.06;81.59;101173.61;1632937;86;21236;-91
2020/12/04 01:23:22;;;;;;;36.83;20.37;;;;;;;-0.09;81.83;101184.31;1634491;86;21349;-90
2020/12/04 01:25:49;;;;;;;51.73;24.30;;;;;;;-0.08;81.73;101180.73;1634234;86;22326;-90
2020/12/04 01:28:19;;;;;;;63.40;27.60;;;;;;;0.03;81.42;101174.80;1635812;86;21227;-90
2020/12/04 01:30:47;;;;;;;51.87;24.53;;;;;;;0.03;81.35;101166.46;1616533;87;21282;-89
2020/12/04 01:33:14;;;;;;;53.63;24.23;;;;;;;-0.11;81.77;101159.98;1626075;86;21225;-86
2020/12/04 01:35:42;;;;;;;55.03;26.63;;;;;;;-0.09;81.83;101162.03;1624789;85;22123;-87
2020/12/04 01:38:09;;;;;;;39.07;20.63;;;;;;;0.06;81.52;101178.07;1616314;87;21235;-86
2020/12/04 01:40:36;;;;;;;43.03;22.70;;;;;;;0.09;81.19;101168.67;1618084;86;21223;-86
2020/12/04 01:43:03;;;;;;;44.67;22.97;;;;;;;0.02;81.33;101170.04;1624800;86;21357;-86
2020/12/04 01:45:36;;;;;;;46.37;23.23;;;;;;;-0.04;81.51;101159.93;1625424;86;21339;-87
2020/12/04 01:48:04;;;;;;;38.63;20.13;;;;;;;0.02;81.37;101155.63;1632135;86;21187;-86
2020/12/04 01:50:31;;;;;;;46.93;24.47;;;;;;;0.12;81.08;101155.37;1635556;86;21341;-84
2020/12/04 01:52:58;;;;;;;43.60;21.30;;;;;;;0.10;81.08;101148.09;1629335;86;21227;-86
2020/12/04 01:55:27;;;;;;;43.63;20.73;;;;;;;0.05;81.24;101145.39;1639945;85;21206;-87
2020/12/04 01:57:54;;;;;;;51.67;24.60;;;;;;;-0.01;81.44;101156.64;1631610;86;21850;-86
2020/12/04 02:00:21;;;;;;;;;;;;;;;0.11;81.26;101167.27;1634912;86;22469;-87
2020/12/04 02:02:48;;;;;;;47.37;24.47;;;;;;;0.19;80.85;101157.97;1629043;86;20185;-88
2020/12/04 02:05:15;;;;;;;44.47;20.87;;;;;;;0.07;81.10;101155.31;1629338;84;21245;-85
2020/12/04 02:08:09;;;;;;;49.17;24.60;;;;;;;0.00;81.39;101164.06;1624997;86;21298;-87
2020/12/04 02:10:48;;;;;;;95.93;37.70;;;;;;;0.00;81.40;101165.37;1620873;86;21166;-86
2020/12/04 02:13:16;;;;;;;62.77;28.13;;;;;;;0.12;81.06;101165.03;1629975;85;21552;-86
2020/12/04 02:15:44;;;;;;;51.80;27.03;;;;;;;0.06;81.16;101166.72;1637077;85;21182;-87
2020/12/04 02:18:11;;;;;;;71.87;29.73;;;;;;;0.01;81.34;101179.31;1621565;86;21230;-85
2020/12/04 02:20:38;;;;;;;72.40;28.07;;;;;;;0.06;81.27;101182.45;1623757;86;21254;-88
2020/12/04 02:23:07;;;;;;;;;;;;;;;0.21;80.93;101172.75;1639166;86;21368;-84
2020/12/04 02:25:35;;;;;;;79.77;35.17;;;;;;;0.12;80.99;101184.70;1632186;85;20165;-88
2020/12/04 02:28:03;;;;;;;80.60;32.83;;;;;;;0.01;81.29;101178.00;1628107;86;21227;-88
2020/12/04 02:30:34;;;;;;;62.13;29.07;;;;;;;0.07;81.32;101173.66;1630146;82;21212;-88
2020/12/04 02:33:05;;;;;;;79.80;32.17;;;;;;;0.13;81.11;101167.56;1630582;83;21159;-93
2020/12/04 02:35:33;;;;;;;81.63;28.10;;;;;;;0.07;81.17;101170.56;1629834;83;21147;-91
2020/12/04 02:38:00;;;;;;;70.70;28.47;;;;;;;-0.03;81.52;101165.55;1599150;87;21841;-87
2020/12/04 02:40:27;;;;;;;68.50;28.23;;;;;;;0.10;81.33;101161.20;1637923;85;21372;-88
2020/12/04 02:42:54;;;;;;;52.67;25.80;;;;;;;0.08;81.33;101167.02;1616713;87;21234;-87
2020/12/04 02:45:21;;;;;;;65.73;26.83;;;;;;;0.01;81.49;101159.65;1632580;86;21720;-86
2020/12/04 02:47:48;;;;;;;50.23;23.10;;;;;;;-0.06;81.83;101157.88;1621435;87;21170;-86
2020/12/04 02:50:15;;;;;;;;;;;;;;;0.07;81.64;101146.13;1627863;86;21259;-86
2020/12/04 02:52:42;;;;;;;59.50;29.03;;;;;;;0.15;81.40;101153.88;1582034;88;20162;-85
2020/12/04 02:55:09;;;;;;;76.67;29.27;;;;;;;0.02;81.68;101167.42;1639668;82;21204;-84
2020/12/04 02:57:40;;;;;;;71.33;30.27;;;;;;;-0.02;81.95;101164.60;1632336;87;21388;-85
2020/12/04 03:00:07;;;;;;;99.53;39.50;;;;;;;0.01;81.98;101167.52;1641526;86;21181;-83
2020/12/04 03:02:34;;;;;;;;;;;;;;;0.08;81.71;101154.38;1642139;85;21153;-87
2020/12/04 03:05:00;;;;;;;66.87;31.03;;;;;;;0.10;81.61;101158.58;1628228;86;20956;-85
2020/12/04 03:07:27;;;;;;;66.33;31.50;;;;;;;-0.01;81.90;101147.95;1631172;86;21187;-86
2020/12/04 03:09:54;;;;;;;52.97;25.30;;;;;;;-0.06;82.14;101151.33;1634240;86;21258;-84
2020/12/04 03:12:22;;;;;;;77.87;31.10;;;;;;;0.00;82.05;101164.06;1627388;87;21215;-86
2020/12/04 03:14:50;;;;;;;63.53;28.50;;;;;;;0.12;81.63;101154.06;1628288;86;22343;-84
2020/12/04 03:17:17;;;;;;;75.53;32.00;;;;;;;0.16;81.65;101161.27;1620800;86;21826;-84
2020/12/04 03:19:46;;;;;;;72.30;26.20;;;;;;;0.10;81.74;101142.02;1628432;85;21177;-83
2020/12/04 03:22:15;;;;;;;52.77;26.17;;;;;;;0.01;82.02;101140.83;1621272;85;21607;-85
2020/12/04 03:24:42;;;;;;;;;;;;;;;0.00;82.21;101147.02;1630750;86;21259;-86
2020/12/04 03:27:09;;;;;;;53.00;23.73;;;;;;;0.06;82.06;101161.48;1617749;86;20190;-83
2020/12/04 03:29:36;;;;;;;70.40;29.67;;;;;;;-0.01;82.23;101151.41;1619123;86;21195;-85
2020/12/04 03:32:03;;;;;;;;;;;;;;;-0.06;82.39;101144.78;1622779;86;21195;-87
2020/12/04 03:34:31;;;;;;;;;;;;;;;-0.02;82.48;101136.63;1623727;86;20188;-88
2020/12/04 03:36:58;;;;;;;60.07;28.37;;;;;;;0.11;82.14;101141.88;1623172;83;20208;-87
2020/12/04 03:39:25;;;;;;;63.30;26.53;;;;;;;0.14;82.22;101147.42;1623958;86;21218;-88
2020/12/04 03:41:52;;;;;;;52.50;22.43;;;;;;;0.13;82.21;101147.03;1635374;86;21258;-86
2020/12/04 03:44:19;;;;;;;58.10;26.37;;;;;;;0.06;82.29;101148.38;1633546;86;21170;-87
2020/12/04 03:46:49;;;;;;;45.90;22.53;;;;;;;0.09;82.26;101135.91;1622294;86;21282;-87
2020/12/04 03:49:16;;;;;;;52.20;26.80;;;;;;;0.22;81.94;101141.19;1625345;86;21402;-87
2020/12/04 03:51:44;;;;;;;70.47;29.57;;;;;;;0.25;81.93;101142.78;1629364;86;21238;-87
2020/12/04 03:54:11;;;;;;;54.93;27.30;;;;;;;0.23;81.98;101139.39;1631485;86;21386;-85
2020/12/04 03:56:40;;;;;;;54.63;21.67;;;;;;;0.21;82.01;101146.52;1604522;87;21237;-87
2020/12/04 03:59:07;;;;;;;65.60;28.93;;;;;;;0.29;81.72;101141.16;1630857;86;21745;-88
2020/12/04 04:01:35;;;;;;;56.87;28.50;;;;;;;0.35;81.43;101131.55;1637596;86;22193;-86
2020/12/04 04:04:01;;;;;;;57.60;27.83;;;;;;;0.24;81.73;101141.09;1637219;86;22523;-85
2020/12/04 04:06:28;;;;;;;53.57;26.53;;;;;;;0.17;82.04;101154.61;1614666;85;21797;-87
2020/12/04 04:08:55;;;;;;;;;;;;;;;0.25;81.93;101146.72;1595855;88;21239;-88
2020/12/04 04:11:28;;;;;;;56.98;26.48;;;;;;;0.35;81.65;101132.03;1602058;88;20189;-89
2020/12/04 04:13:55;;;;;;;55.17;28.47;;;;;;;0.33;81.70;101136.06;1600814;88;21210;-88
2020/12/04 04:16:23;;;;;;;61.83;30.13;;;;;;;0.31;82.02;101147.61;1598305;88;21685;-89
2020/12/04 04:18:50;;;;;;;56.30;24.27;;;;;;;0.29;82.04;101137.70;1597306;88;21251;-89
2020/12/04 04:21:17;;;;;;;51.23;24.90;;;;;;;0.25;82.13;101139.69;1588286;88;21365;-88
2020/12/04 04:23:44;;;;;;;54.27;27.80;;;;;;;-0.18;82.08;101063.87;1592899;88;21255;-88
2020/12/04 04:26:11;;;;;;;58.90;29.13;;;;;;;0.28;82.06;101139.45;1602788;88;21418;-85
2020/12/04 04:28:40;;;;;;;55.40;26.90;;;;;;;0.26;82.37;101141.34;1601229;88;21307;-85
2020/12/04 04:31:08;;;;;;;45.37;23.53;;;;;;;0.27;82.49;101140.90;1587950;88;21313;-88
2020/12/04 04:33:36;;;;;;;50.23;27.30;;;;;;;0.36;82.19;101148.16;1589487;89;21301;-86
2020/12/04 04:36:04;;;;;;;66.53;31.57;;;;;;;0.47;81.80;101143.03;1609164;85;21140;-85
2020/12/04 04:38:31;;;;;;;69.13;33.10;;;;;;;0.46;81.99;101140.02;1639499;85;21217;-87
2020/12/04 04:44:03;;;;;;;53.77;25.93;;;;;;;0.42;82.28;101128.06;1905130;74;24573;-84
2020/12/04 04:46:44;;;;;;;62.30;29.70;;;;;;;0.42;82.17;101127.23;1840434;76;21166;-84
2020/12/04 04:49:26;;;;;;;99.47;35.77;;;;;;;0.54;81.77;101131.16;1860490;75;21790;-86
2020/12/04 04:51:49;;;;;;;72.17;34.73;;;;;;;0.55;81.94;101141.20;1861836;75;21179;-87
2020/12/04 04:54:17;;;;;;;65.43;25.53;;;;;;;0.50;82.12;101129.69;1844601;77;21240;-87
2020/12/04 04:56:51;;;;;;;63.57;27.70;;;;;;;0.48;82.14;101135.99;1855759;77;21202;-91
2020/12/04 04:59:20;;;;;;;67.67;31.27;;;;;;;0.54;81.91;101142.96;1837106;77;21188;-87
2020/12/04 05:01:47;;;;;;;82.83;32.03;;;;;;;0.47;82.14;101146.10;1825631;77;21188;-87
2020/12/04 05:04:15;;;;;;;87.30;31.80;;;;;;;0.39;82.47;101153.17;1831761;77;21112;-86
2020/12/04 05:06:47;;;;;;;84.77;33.13;;;;;;;0.34;82.83;101146.94;1793893;77;21718;-86
2020/12/04 05:12:35;;;;;;;83.47;32.80;;;;;;;0.52;82.56;101130.42;1755143;80;26040;-88
2020/12/04 05:15:22;;;;;;;82.53;33.03;;;;;;;0.45;82.83;101139.64;1794867;79;21226;-88
2020/12/04 05:18:10;;;;;;;98.07;38.73;;;;;;;0.47;82.86;101139.55;1783338;79;21144;-88
2020/12/04 05:20:44;;;;;;;83.37;34.80;;;;;;;0.60;82.48;101126.44;1785228;79;21168;-89
2020/12/04 05:23:11;;;;;;;107.27;39.40;;;;;;;0.55;82.46;101129.39;1691191;83;21240;-89
2020/12/04 05:25:45;;;;;;;101.90;40.73;;;;;;;0.49;82.70;101142.45;1651013;84;21191;-88
2020/12/04 05:28:23;;;;;;;102.10;43.53;;;;;;;0.49;82.80;101137.66;1737100;81;21179;-89
2020/12/04 05:31:10;;;;;;;111.20;42.93;;;;;;;0.58;82.52;101140.97;1721608;82;21138;-88
2020/12/04 05:33:40;;;;;;;119.93;42.55;;;;;;;0.56;82.49;101127.95;1716448;81;21237;-87
2020/12/04 05:36:09;;;;;;;101.23;40.87;;;;;;;0.54;82.80;101139.02;1687391;83;21147;-85
2020/12/04 05:38:36;;;;;;;113.20;42.37;;;;;;;0.61;82.68;101135.53;1663611;85;21171;-87
2020/12/04 05:41:08;;;;;;;112.77;45.47;;;;;;;0.74;82.17;101132.91;1665176;85;21235;-86
2020/12/04 05:43:39;;;;;;;80.83;35.00;;;;;;;0.78;82.08;101137.83;1675668;84;21198;-87
2020/12/04 05:46:22;;;;;;;110.37;43.50;;;;;;;0.74;82.15;101149.97;1665126;85;21218;-87
2020/12/04 05:49:10;;;;;;;81.27;32.93;;;;;;;0.70;82.11;101135.38;1635600;86;21235;-90
2020/12/04 05:51:41;;;;;;;94.52;39.85;;;;;;;0.54;82.06;101129.84;1675813;82;21214;-89
2020/12/04 05:54:12;;;;;;;98.03;40.77;;;;;;;0.56;82.13;101142.86;1669408;82;21310;-91
2020/12/04 05:56:41;;;;;;;79.23;32.30;;;;;;;0.55;82.16;101152.53;1673162;85;21234;-91
2020/12/04 05:59:14;;;;;;;121.17;41.37;;;;;;;0.50;82.39;101140.19;1602941;86;21172;-89
2020/12/04 06:01:47;;;;;;;131.53;47.70;;;;;;;0.60;82.20;101153.52;1658911;85;21190;-89
2020/12/04 06:04:18;;;;;;;105.70;40.73;;;;;;;0.70;82.03;101148.51;1675491;84;21231;-88
2020/12/04 06:06:50;;;;;;;114.63;41.80;;;;;;;0.68;82.07;101149.92;1659478;85;21127;-89
2020/12/04 06:09:21;;;;;;;141.30;48.03;;;;;;;0.61;82.19;101158.31;1644586;86;21219;-90
2020/12/04 06:11:57;;;;;;;105.53;40.40;;;;;;;0.69;81.88;101149.44;1629680;86;21215;-88
2020/12/04 06:14:26;;;;;;;53.50;26.67;;;;;;;0.81;81.67;101161.73;1635111;84;21251;-86
2020/12/04 06:17:08;;;;;;;65.57;28.90;;;;;;;0.74;81.77;101173.59;1629348;85;21698;-89
2020/12/04 06:19:40;;;;;;;62.57;28.03;;;;;;;0.69;82.02;101157.31;1645791;84;21370;-89
2020/12/04 06:22:19;;;;;;;78.27;36.33;;;;;;;0.71;82.00;101165.91;1626342;84;21242;-88
2020/12/04 06:24:58;;;;;;;64.63;30.53;;;;;;;0.66;82.17;101161.44;1659040;83;22209;-87
2020/12/04 06:27:45;;;;;;;;;;;;;;;0.60;82.52;101174.98;1656934;84;21180;-90
2020/12/04 06:30:12;;;;;;;75.07;34.23;;;;;;;0.66;82.50;101170.17;1650934;84;20186;-89
2020/12/04 06:32:49;;;;;;;64.07;30.97;;;;;;;0.70;82.45;101166.88;1649624;84;21183;-89
2020/12/04 06:35:44;;;;;;;77.03;29.70;;;;;;;0.61;82.83;101176.67;1641617;84;21200;-91
2020/12/04 06:38:38;;;;;;;76.30;31.57;;;;;;;0.53;83.11;101183.27;1662799;84;21354;-90
2020/12/04 06:41:29;;;;;;;93.50;41.03;;;;;;;0.60;82.99;101183.69;1637468;84;21690;-90
2020/12/04 06:44:07;;;;;;;108.57;40.57;;;;;;;0.67;82.77;101186.27;1645693;85;21260;-89
2020/12/04 06:46:41;;;;;;;81.47;33.63;;;;;;;0.67;82.89;101172.31;1640597;85;21270;-88
2020/12/04 06:52:23;;;;;;;62.67;29.93;;;;;;;0.71;82.73;101184.28;1663803;84;21339;-90
2020/12/04 06:54:51;;;;;;;68.13;34.40;;;;;;;0.87;82.36;101186.72;1654770;84;21247;-89
2020/12/04 06:57:20;;;;;;;66.50;30.30;;;;;;;0.89;82.21;101190.08;1662111;84;21227;-91
2020/12/04 06:59:50;;;;;;;97.00;39.53;;;;;;;0.80;82.36;101176.27;1657966;84;21229;-86
2020/12/04 07:02:24;;;;;;;97.47;36.33;;;;;;;0.87;82.37;101195.91;1662234;84;21160;-95
2020/12/04 07:04:56;;;;;;;73.27;31.43;;;;;;;1.02;82.13;101192.23;1619750;86;21206;-93
2020/12/04 07:07:36;;;;;;;66.83;32.67;;;;;;;1.03;81.86;101191.75;1655410;84;21298;-93
2020/12/04 07:10:05;;;;;;;64.13;32.23;;;;;;;1.00;81.84;101193.27;1656060;85;21208;-89
2020/12/04 07:12:33;;;;;;;50.00;26.70;;;;;;;0.93;81.98;101204.67;1652213;85;21213;-87
2020/12/04 07:15:00;;;;;;;52.20;26.53;;;;;;;1.01;81.71;101181.83;1659558;84;21228;-88
2020/12/04 07:17:34;;;;;;;55.07;30.33;;;;;;;1.00;81.67;101189.32;1633759;85;21306;-88
2020/12/04 07:20:04;;;;;;;50.33;23.90;;;;;;;0.89;82.00;101187.45;1649776;84;21318;-89
2020/12/04 07:22:31;;;;;;;46.57;26.80;;;;;;;0.86;82.27;101192.42;1665007;84;21386;-89
2020/12/04 07:24:59;;;;;;;44.43;26.43;;;;;;;1.02;81.87;101187.43;1661569;84;21326;-88
2020/12/04 07:27:29;;;;;;;59.83;29.47;;;;;;;1.04;81.83;101197.38;1658959;84;21244;-90
2020/12/04 07:29:58;;;;;;;45.97;22.80;;;;;;;0.93;82.00;101197.62;1662407;84;21193;-89
2020/12/04 07:32:26;;;;;;;69.47;34.50;;;;;;;0.93;82.20;101207.30;1637605;85;21169;-91
2020/12/04 07:34:54;;;;;;;53.83;28.90;;;;;;;1.01;81.94;101222.05;1679851;83;21204;-89
2020/12/04 07:37:29;;;;;;;70.07;36.73;;;;;;;0.95;81.96;101200.16;1696005;83;21119;-89
2020/12/04 07:39:58;;;;;;;63.38;31.73;;;;;;;0.91;82.25;101199.52;1697598;82;21196;-92
2020/12/04 07:42:31;;;;;;;51.53;26.27;;;;;;;0.86;82.47;101199.47;1672746;83;21374;-90
2020/12/04 07:45:13;;;;;;;49.93;27.20;;;;;;;0.96;82.19;101206.62;1697778;82;21642;-91
2020/12/04 07:47:46;;;;;;;70.50;36.13;;;;;;;1.02;82.04;101204.50;1708288;82;21192;-87
2020/12/04 07:50:34;;;;;;;69.63;32.00;;;;;;;1.03;82.08;101210.13;1649077;84;21180;-93
2020/12/04 07:53:03;;;;;;;72.77;38.43;;;;;;;0.86;82.52;101222.61;1652658;85;21375;-89
2020/12/04 07:55:38;;;;;;;58.67;32.60;;;;;;;0.94;82.40;101211.14;1641011;85;21284;-92
2020/12/04 07:58:11;;;;;;;57.25;30.00;;;;;;;1.04;82.08;101219.70;1628419;86;21179;-91
2020/12/04 08:00:44;;;;;;;51.70;28.27;;;;;;;0.96;82.17;101213.18;1615910;86;21393;-91
2020/12/04 08:03:28;;;;;;;63.13;32.80;;;;;;;0.94;82.36;101219.02;1699113;82;21342;-93
2020/12/04 08:06:09;;;;;;;72.10;38.00;;;;;;;1.03;82.07;101208.81;1668133;83;21185;-91
2020/12/04 08:08:36;;;;;;;55.97;29.90;;;;;;;0.95;82.24;101225.09;1656239;84;21283;-90
2020/12/04 08:11:09;;;;;;;61.23;30.00;;;;;;;0.89;82.52;101221.09;1650491;85;22146;-92
2020/12/04 08:13:37;;;;;;;49.43;26.90;;;;;;;0.95;82.42;101225.92;1637151;85;21221;-90
2020/12/04 08:16:08;;;;;;;57.37;32.80;;;;;;;0.98;82.28;101209.14;1622168;87;21347;-91
2020/12/04 08:18:36;;;;;;;65.03;30.33;;;;;;;1.03;82.17;101205.70;1644368;85;21200;-90
2020/12/04 08:21:05;;;;;;;54.97;27.87;;;;;;;0.97;82.34;101196.47;1654013;85;21260;-92
2020/12/04 08:24:02;;;;;;;58.60;28.43;;;;;;;0.93;82.51;101205.98;1662761;85;21176;-92
2020/12/04 08:26:41;;;;;;;82.50;39.00;;;;;;;0.90;82.58;101221.45;1644818;85;21203;-92
2020/12/04 08:29:09;;;;;;;63.73;32.80;;;;;;;1.04;82.24;101219.22;1641105;86;21660;-90
2020/12/04 08:31:36;;;;;;;67.20;33.40;;;;;;;1.12;82.21;101216.89;1595240;87;22577;-92
2020/12/04 08:34:05;;;;;;;69.03;34.37;;;;;;;1.11;82.18;101217.86;1639809;85;21262;-93
2020/12/04 08:36:49;;;;;;;68.77;38.63;;;;;;;1.11;82.15;101221.80;1664058;83;21132;-92
2020/12/04 08:40:02;;;;;;;65.83;32.23;;;;;;;1.21;81.90;101223.31;1679675;84;21177;-93
2020/12/04 08:46:47;;;;;;;65.93;34.20;;;;;;;0.99;82.34;101219.16;1636083;84;21272;-93
2020/12/04 08:50:18;;;;;;;70.20;37.63;;;;;;;1.01;82.52;101214.65;1687555;84;21216;-92
2020/12/04 08:53:30;;;;;;;62.70;30.23;;;;;;;1.08;82.33;101214.59;1657652;85;21173;-91
2020/12/04 08:56:44;;;;;;;64.53;30.50;;;;;;;1.04;82.56;101217.08;1671572;84;21290;-91
2020/12/04 09:00:09;;;;;;;;;;;;;;;;;;;;;
2020/12/04 09:02:46;;;;;;;71.23;35.90;;;;;;;1.12;82.46;101214.75;1653495;85;21263;-91
2020/12/04 09:05:16;;;;;;;63.03;32.60;;;;;;;1.10;82.47;101217.95;1653639;85;21168;-92
2020/12/04 09:07:49;;;;;;;63.03;35.07;;;;;;;1.09;82.64;101209.70;1652486;85;21274;-92
2020/12/04 09:10:46;;;;;;;75.57;37.97;;;;;;;1.26;82.45;101219.91;1797772;78;23220;-93
2020/12/04 09:13:15;;;;;;;68.03;34.47;;;;;;;1.36;81.98;101227.50;1764513;79;21211;-92
2020/12/04 09:15:54;;;;;;;70.90;34.35;;;;;;;1.35;81.56;101228.42;1772188;79;21160;-92
2020/12/04 09:18:23;;;;;;;68.90;32.33;;;;;;;1.23;81.86;101225.36;1775518;79;21831;-91
2020/12/04 09:20:54;;;;;;;71.10;38.50;;;;;;;1.21;82.02;101216.75;1778232;79;21607;-89
2020/12/04 09:23:27;;;;;;;63.50;34.73;;;;;;;1.23;81.96;101226.67;1777810;80;21152;-90
2020/12/04 09:25:55;;;;;;;72.47;34.93;;;;;;;1.18;82.04;101219.57;1753523;80;21309;-92
2020/12/04 09:28:32;;;;;;;57.23;29.63;;;;;;;1.11;82.30;101227.05;1755836;80;21659;-93
2020/12/04 09:31:01;;;;;;;67.53;35.67;;;;;;;1.22;82.26;101226.77;1773418;79;21198;-90
2020/12/04 09:33:32;;;;;;;74.43;40.33;;;;;;;1.29;81.97;101223.61;1736285;79;21211;-89
2020/12/04 09:36:08;;;;;;;69.73;36.53;;;;;;;1.29;82.14;101221.47;1725410;80;21198;-91
2020/12/04 09:38:40;;;;;;;68.53;32.53;;;;;;;1.26;82.20;101222.98;1664016;85;21207;-92
2020/12/04 09:41:22;;;;;;;63.57;31.67;;;;;;;1.35;81.94;101221.86;1648218;85;21199;-92
2020/12/04 09:44:23;;;;;;;73.53;38.27;;;;;;;1.50;81.56;101217.80;1622952;82;21158;-94
2020/12/04 09:46:53;;;;;;;66.77;33.53;;;;;;;1.46;81.50;101224.23;1595271;88;21337;-94
2020/12/04 09:49:23;;;;;;;64.93;31.47;;;;;;;1.35;81.75;101220.55;1615643;87;21306;-93
2020/12/04 09:51:56;;;;;;;63.00;33.90;;;;;;;1.45;81.64;101205.45;1606729;88;21194;-93
2020/12/04 09:54:27;;;;;;;61.70;35.23;;;;;;;1.50;81.22;101214.70;1620698;87;21171;-94
2020/12/04 09:56:55;;;;;;;55.77;29.37;;;;;;;1.52;81.33;101211.97;1609631;88;21369;-92
2020/12/04 09:59:23;;;;;;;50.87;28.73;;;;;;;1.50;81.15;101208.61;1622239;87;21361;-92
2020/12/04 10:01:52;;;;;;;52.73;29.03;;;;;;;1.57;80.81;101209.86;1618175;87;21312;-94
2020/12/04 10:04:19;;;;;;;57.77;33.20;;;;;;;1.62;80.67;101204.27;1618766;87;21219;-91
2020/12/04 10:07:03;;;;;;;51.48;30.52;;;;;;;1.61;80.76;101203.44;1631718;86;21418;-91
2020/12/04 10:09:53;;;;;;;74.67;36.73;;;;;;;1.61;81.06;101206.55;1619862;86;21333;-91
2020/12/04 10:12:22;;;;;;;72.17;37.17;;;;;;;1.72;80.69;101206.14;1631709;84;21192;-94
2020/12/04 10:14:52;;;;;;;72.83;36.37;;;;;;;1.85;80.38;101214.47;1659011;84;21637;-93
2020/12/04 10:17:21;;;;;;;75.97;38.17;;;;;;;1.86;80.26;101200.36;1648636;85;21172;-93
2020/12/04 10:19:50;;;;;;;69.93;35.90;;;;;;;1.71;80.45;101217.62;1646758;86;21216;-93
2020/12/04 10:22:20;;;;;;;72.80;37.77;;;;;;;1.69;80.61;101211.61;1623951;88;21355;-90
2020/12/04 10:24:48;;;;;;;75.30;38.60;;;;;;;1.78;80.47;101226.37;1583883;88;21833;-91
2020/12/04 10:27:20;;;;;;;88.83;42.93;;;;;;;1.67;80.53;101213.50;1647651;84;21228;-89
2020/12/04 10:29:57;;;;;;;71.60;35.33;;;;;;;1.62;80.91;101210.84;1807792;77;22867;-90
2020/12/04 10:32:31;;;;;;;81.97;41.27;;;;;;;1.62;81.07;101218.27;1793121;80;21161;-91
2020/12/04 10:35:04;;;;;;;80.67;42.37;;;;;;;1.74;80.76;101212.61;1701962;82;21172;-92
2020/12/04 10:37:33;;;;;;;110.30;48.80;;;;;;;1.74;80.40;101217.38;1751660;81;21152;-90
2020/12/04 10:40:02;;;;;;;106.67;46.93;;;;;;;1.60;80.66;101212.28;1756836;81;21232;-89
2020/12/04 10:42:32;;;;;;;115.10;53.73;;;;;;;1.48;81.08;101211.82;1738338;82;21144;-91
2020/12/04 10:44:59;;;;;;;135.37;56.60;;;;;;;1.50;81.07;101206.81;1724950;82;21296;-90
2020/12/04 10:47:46;;;;;;;104.43;48.47;;;;;;;1.60;80.91;101219.30;1734668;82;21309;-90
2020/12/04 10:50:19;;;;;;;86.87;40.63;;;;;;;1.59;80.90;101203.19;1737935;81;21151;-91
2020/12/04 10:52:52;;;;;;;102.90;47.13;;;;;;;1.53;81.02;101213.17;1726913;82;21133;-90
2020/12/04 10:55:23;;;;;;;90.43;42.43;;;;;;;1.51;81.14;101206.36;1739942;81;21298;-88
2020/12/04 10:58:04;;;;;;;121.87;51.93;;;;;;;1.55;80.90;101208.66;1738515;81;21132;-91
2020/12/04 11:00:32;;;;;;;115.50;47.43;;;;;;;1.44;81.02;101204.62;1715752;81;21399;-91
2020/12/04 11:05:41;;;;;;;106.37;45.47;;;;;;;1.39;81.39;101213.78;1720238;81;21120;-91
2020/12/04 11:08:42;;;;;;;125.60;55.52;;;;;;;1.45;80.86;101212.03;1698519;84;21150;-90
2020/12/04 11:11:39;;;;;;;104.07;47.47;;;;;;;1.42;80.90;101203.89;1657776;81;21349;-89
2020/12/04 11:14:46;;;;;;;;;;;;;;;;;;;;;
2020/12/04 11:28:04;;;;;;;106.43;41.33;;;;;;;1.31;81.31;101216.94;1841209;76;23664;-93
2020/12/04 11:30:37;;;;;;;93.57;40.93;;;;;;;1.21;81.34;101211.98;1858634;75;21300;-93
2020/12/04 11:33:14;;;;;;;106.83;56.98;;;;;;;1.23;81.54;101206.97;1833486;76;28126;-91
2020/12/04 11:36:02;;;;;;;99.27;46.47;;;;;;;1.34;81.26;101207.55;1855938;75;21117;-93
2020/12/04 11:38:34;;;;;;;109.40;49.63;;;;;;;1.45;80.78;101201.06;1771157;80;21188;-92
2020/12/04 11:41:36;;;;;;;108.73;47.90;;;;;;;1.47;80.75;101200.94;1777529;79;21279;-91
2020/12/04 11:44:07;;;;;;;95.33;46.87;;;;;;;1.36;81.02;101206.48;1801786;78;21184;-91
2020/12/04 11:46:56;;;;;;;84.17;43.10;;;;;;;1.31;81.14;101202.50;1786575;78;21161;-91
2020/12/04 11:49:25;;;;;;;95.33;43.03;;;;;;;1.42;80.86;101197.33;1795066;80;21197;-93
2020/12/04 11:51:56;;;;;;;95.63;44.10;;;;;;;1.41;80.68;101200.06;1790861;80;21156;-91
2020/12/04 11:54:29;;;;;;;105.93;46.70;;;;;;;1.29;81.10;101204.39;1795831;80;21156;-91
2020/12/04 11:57:40;;;;;;;79.07;36.70;;;;;;;1.29;81.22;101209.16;1790350;80;21140;-92
2020/12/04 12:00:48;;;;;;;126.07;51.30;;;;;;;1.34;80.88;101211.48;1787857;80;21182;-93
2020/12/04 12:03:17;;;;;;;99.20;41.10;;;;;;;1.25;81.27;101202.94;1796562;80;21138;-94
2020/12/04 12:06:27;;;;;;;97.87;43.47;;;;;;;1.18;81.61;101206.92;1808845;78;21064;-93
2020/12/04 12:09:01;;;;;;;96.30;38.13;;;;;;;1.20;81.40;101218.98;1830789;78;21237;-90
2020/12/04 12:11:30;;;;;;;85.97;42.60;;;;;;;1.29;81.20;101220.16;1798393;78;21168;-92
2020/12/04 12:13:58;;;;;;;96.07;44.50;;;;;;;1.15;81.50;101215.38;1833045;77;21146;-93
2020/12/04 12:16:25;;;;;;;83.10;41.23;;;;;;;1.10;81.77;101219.27;1832513;77;21187;-90